Ora Direzione Vento Velocita' Vento Media Vento Raffica Max. Temperatura Wind Chill Pioggia Pressione
02:41:46.0240 °(WSW)4.44 Kts3.72 Kts8.16 Kts8.1 °C6.81 °C0.0 mm0.0 Hpa
02:21:36.0157 °(SSE)3.96 Kts3.36 Kts8.16 Kts8.0 °C6.94 °C0.0 mm0.0 Hpa
02:01:23.0114 °(ESE)6.6 Kts5.68 Kts8.16 Kts8.0 °C5.87 °C0.0 mm0.0 Hpa
01:41:11.00 °(N)5.76 Kts5.28 Kts8.16 Kts7.8 °C6.05 °C0.0 mm0.0 Hpa
01:21:02.04 °(N)5.28 Kts4.84 Kts8.16 Kts8.3 °C6.73 °C0.0 mm0.0 Hpa
01:00:50.00 °(N)3.48 Kts4.44 Kts8.16 Kts8.3 °C7.53 °C0.0 mm0.0 Hpa
00:40:38.0134 °(SE)4.8 Kts4.6 Kts6.24 Kts8.1 °C6.74 °C0.0 mm0.0 Hpa
00:21:36.027 °(NNE)3.12 Kts3.64 Kts5.16 Kts8.3 °C7.62 °C0.0 mm0.0 Hpa
00:01:31.043 °(NE)1.68 Kts1.92 Kts2.04 Kts8.6 °C8.99 °C0.0 mm0.0 Hpa
23:41:18.091 °(E)2.16 Kts2.48 Kts14.04 Kts8.8 °C8.82 °C0.0 mm0.0 Hpa
23:21:10.0121 °(ESE)2.16 Kts3.48 Kts14.04 Kts8.8 °C8.82 °C0.0 mm0.0 Hpa
23:01:04.016 °(NNE)1.8 Kts1.84 Kts14.04 Kts9.0 °C9.35 °C0.0 mm0.0 Hpa
22:41:02.084 °(E)1.68 Kts2.04 Kts14.04 Kts9.3 °C9.75 °C0.0 mm0.0 Hpa
22:20:55.00 °(N)0.0 Kts0.0 Kts14.04 Kts9.8 °C19.21 °C0.0 mm0.0 Hpa
22:00:46.0312 °(NW)1.8 Kts1.6 Kts14.04 Kts10.8 °C11.33 °C0.0 mm0.0 Hpa
21:41:45.0148 °(SSE)2.04 Kts1.72 Kts14.04 Kts10.8 °C11.11 °C0.0 mm0.0 Hpa
21:21:38.00 °(N)2.52 Kts2.4 Kts14.04 Kts11.0 °C11.06 °C0.0 mm0.0 Hpa
21:01:31.00 °(N)2.4 Kts1.92 Kts14.04 Kts11.0 °C11.19 °C0.0 mm0.0 Hpa
20:41:20.0334 °(NNW)0.6 Kts0.56 Kts14.04 Kts11.1 °C12.98 °C0.0 mm0.0 Hpa
20:21:17.00 °(N)1.44 Kts1.2 Kts14.04 Kts11.3 °C12.16 °C0.0 mm0.0 Hpa